createdAt,value
2017-05-19T00:01:58.482Z,18.00
2017-05-19T00:04:26.791Z,18.00
2017-05-19T00:06:55.867Z,17.90
2017-05-19T00:09:24.187Z,17.90
2017-05-19T00:11:52.544Z,17.90
2017-05-19T00:14:21.599Z,17.80
2017-05-19T00:16:50.002Z,17.90
2017-05-19T00:19:18.314Z,17.80
2017-05-19T00:21:46.622Z,17.80
2017-05-19T00:24:14.943Z,17.80
2017-05-19T00:26:44.005Z,17.90
2017-05-19T00:29:12.416Z,17.90
2017-05-19T00:31:40.789Z,17.80
2017-05-19T00:34:09.102Z,17.80
2017-05-19T00:36:37.434Z,17.90
2017-05-19T00:39:05.751Z,17.80
2017-05-19T00:41:34.807Z,17.80
2017-05-19T00:44:03.119Z,17.80
2017-05-19T00:46:32.173Z,17.70
2017-05-19T00:49:00.490Z,17.80
2017-05-19T00:51:29.543Z,17.80
2017-05-19T00:53:57.851Z,17.80
2017-05-19T00:56:26.163Z,17.80
2017-05-19T00:58:54.507Z,17.80
2017-05-19T01:01:22.890Z,17.80
2017-05-19T01:03:51.211Z,17.90
2017-05-19T01:06:19.547Z,17.80
2017-05-19T01:08:47.927Z,17.80
2017-05-19T01:11:16.251Z,17.80
2017-05-19T01:13:44.563Z,17.80
2017-05-19T01:16:12.871Z,17.80
2017-05-19T01:18:41.931Z,17.80
2017-05-19T01:21:10.250Z,17.80
2017-05-19T01:23:39.298Z,17.70
2017-05-19T01:26:07.698Z,17.80
2017-05-19T01:28:36.018Z,17.80
2017-05-19T01:31:04.336Z,17.90
2017-05-19T01:33:32.735Z,17.70
2017-05-19T01:36:01.039Z,17.80
2017-05-19T01:38:30.210Z,17.80
2017-05-19T01:40:58.598Z,17.70
2017-05-19T01:43:26.979Z,17.70
2017-05-19T01:45:55.302Z,17.60
2017-05-19T01:48:23.617Z,17.60
2017-05-19T01:50:51.930Z,17.70
2017-05-19T01:53:20.308Z,17.80
2017-05-19T01:55:48.726Z,17.80
2017-05-19T01:58:17.031Z,17.80
2017-05-19T02:00:45.341Z,17.80
2017-05-19T02:03:13.658Z,17.80
2017-05-19T02:05:41.971Z,17.90
2017-05-19T02:08:10.388Z,17.80
2017-05-19T02:10:39.470Z,17.70
2017-05-19T02:13:07.847Z,17.70
2017-05-19T02:15:36.157Z,17.70
2017-05-19T02:18:05.211Z,17.70
2017-05-19T02:20:33.604Z,17.70
2017-05-19T02:23:01.915Z,17.70
2017-05-19T02:25:30.234Z,17.70
2017-05-19T02:27:58.561Z,17.80
2017-05-19T02:30:27.628Z,17.90
2017-05-19T02:32:55.951Z,17.80
2017-05-19T02:35:25.228Z,17.80
2017-05-19T02:37:54.288Z,17.80
2017-05-19T02:40:22.707Z,17.80
2017-05-19T02:42:51.019Z,17.80
2017-05-19T02:45:19.348Z,17.80
2017-05-19T02:47:47.663Z,17.80
2017-05-19T02:50:15.983Z,17.80
2017-05-19T02:52:44.315Z,17.80
2017-05-19T02:55:12.630Z,17.80
2017-05-19T02:57:41.036Z,17.80
2017-05-19T03:00:09.426Z,17.70
2017-05-19T03:02:37.735Z,17.80
2017-05-19T03:05:06.048Z,17.90
2017-05-19T03:07:34.462Z,17.90
2017-05-19T03:10:02.840Z,17.80
2017-05-19T03:12:31.162Z,17.80
2017-05-19T03:14:59.477Z,17.70
2017-05-19T03:20:21.829Z,17.70
2017-05-19T03:22:50.149Z,17.50
2017-05-19T03:25:18.467Z,17.50
2017-05-19T03:27:46.776Z,17.60
2017-05-19T03:30:15.085Z,17.50
2017-05-19T03:32:43.398Z,17.50
2017-05-19T03:35:11.741Z,17.60
2017-05-19T03:37:40.115Z,17.60
2017-05-19T03:40:08.495Z,17.50
2017-05-19T03:42:36.807Z,17.50
2017-05-19T03:45:05.150Z,17.60
2017-05-19T03:47:33.462Z,17.70
2017-05-19T03:50:01.774Z,17.80
2017-05-19T03:52:30.090Z,17.90
2017-05-19T03:54:58.402Z,17.80
2017-05-19T03:57:26.730Z,17.90
2017-05-19T03:59:55.038Z,17.90
2017-05-19T04:02:24.117Z,17.80
2017-05-19T04:04:52.489Z,17.80
2017-05-19T04:07:20.798Z,17.80
2017-05-19T04:09:49.844Z,17.90
2017-05-19T04:12:18.238Z,18.00
2017-05-19T04:14:46.616Z,18.00
2017-05-19T04:17:14.922Z,17.90
2017-05-19T04:19:43.291Z,18.00
2017-05-19T04:22:11.602Z,18.00
2017-05-19T04:24:39.950Z,18.00
2017-05-19T04:27:08.286Z,18.00
2017-05-19T04:29:36.713Z,17.90
2017-05-19T04:32:05.085Z,18.00
2017-05-19T04:34:33.401Z,17.90
2017-05-19T04:37:02.418Z,17.90
2017-05-19T04:39:30.740Z,18.00
2017-05-19T04:41:59.059Z,18.00
2017-05-19T04:44:27.382Z,18.00
2017-05-19T04:46:55.770Z,18.00
2017-05-19T04:49:24.083Z,18.00
2017-05-19T04:51:52.520Z,18.10
2017-05-19T04:54:20.833Z,18.20
2017-05-19T04:56:49.887Z,18.10
2017-05-19T04:59:18.213Z,18.20
2017-05-19T05:01:47.282Z,18.20
2017-05-19T05:04:15.603Z,18.40
2017-05-19T05:06:43.912Z,18.60
2017-05-19T05:09:12.240Z,18.70
2017-05-19T05:11:41.310Z,18.60
2017-05-19T05:14:09.705Z,18.70
2017-05-19T05:16:38.080Z,19.00
2017-05-19T05:19:06.393Z,19.70
2017-05-19T05:21:34.735Z,20.50
2017-05-19T05:24:03.048Z,21.10
2017-05-19T05:26:31.354Z,21.90
2017-05-19T05:28:59.673Z,22.20
2017-05-19T05:31:27.978Z,22.10
2017-05-19T05:33:57.039Z,21.30
2017-05-19T05:37:01.153Z,20.40
2017-05-19T05:39:29.467Z,20.70
2017-05-19T05:41:57.791Z,20.50
2017-05-19T05:44:26.150Z,20.90
2017-05-19T05:46:54.571Z,21.00
2017-05-19T05:49:22.890Z,20.80
2017-05-19T05:51:51.252Z,21.50
2017-05-19T05:54:19.600Z,22.10
2017-05-19T05:56:47.914Z,22.20
2017-05-19T05:59:16.275Z,21.70
2017-05-19T06:01:44.587Z,21.50
2017-05-19T06:04:12.909Z,21.30
2017-05-19T06:06:41.306Z,21.30
2017-05-19T06:09:09.691Z,21.10
2017-05-19T06:11:38.062Z,21.20
2017-05-19T06:14:06.442Z,21.30
2017-05-19T06:16:34.763Z,21.20
2017-05-19T06:19:03.099Z,22.10
2017-05-19T06:21:31.569Z,22.10
2017-05-19T06:23:59.894Z,21.30
2017-05-19T06:26:28.239Z,20.90
2017-05-19T06:28:56.556Z,20.90
2017-05-19T06:31:24.871Z,20.80
2017-05-19T06:33:53.218Z,21.40
2017-05-19T06:36:21.542Z,22.10
2017-05-19T06:38:49.944Z,22.40
2017-05-19T06:41:18.324Z,22.70
2017-05-19T06:43:46.719Z,23.20
2017-05-19T06:46:15.087Z,24.30
2017-05-19T06:48:43.402Z,24.70
2017-05-19T06:51:11.865Z,24.20
2017-05-19T06:53:40.188Z,23.20
2017-05-19T06:56:08.522Z,23.60
2017-05-19T06:58:36.842Z,23.50
2017-05-19T07:01:05.192Z,22.70
2017-05-19T07:03:33.508Z,22.70
2017-05-19T07:06:01.831Z,23.90
2017-05-19T07:08:30.179Z,23.70
2017-05-19T07:11:17.424Z,23.90
2017-05-19T07:13:45.799Z,23.50
2017-05-19T07:16:14.127Z,22.90
2017-05-19T07:18:42.472Z,22.60
2017-05-19T07:21:10.831Z,22.50
2017-05-19T07:23:39.158Z,23.10
2017-05-19T07:26:07.512Z,23.40
2017-05-19T07:28:35.840Z,23.10
2017-05-19T07:31:04.192Z,22.80
2017-05-19T07:33:32.515Z,22.60
2017-05-19T07:36:00.849Z,22.30
2017-05-19T07:38:29.187Z,22.20
2017-05-19T07:40:57.573Z,22.10
2017-05-19T07:43:25.928Z,21.80
2017-05-19T07:45:54.258Z,21.80
2017-05-19T07:48:22.574Z,21.70
2017-05-19T07:50:50.914Z,21.60
2017-05-19T07:53:19.268Z,21.50
2017-05-19T07:55:47.607Z,21.40
2017-05-19T07:58:16.022Z,21.40
2017-05-19T08:00:44.399Z,21.40
2017-05-19T08:03:12.780Z,21.30
2017-05-19T08:05:41.136Z,21.10
2017-05-19T08:08:09.545Z,21.20
2017-05-19T08:10:37.855Z,21.00
2017-05-19T08:13:06.193Z,21.10
2017-05-19T08:15:34.507Z,21.40
2017-05-19T08:18:02.864Z,21.30
2017-05-19T08:20:31.238Z,21.30
2017-05-19T08:22:59.560Z,21.40
2017-05-19T08:25:27.895Z,21.40
2017-05-19T08:27:56.219Z,21.40
2017-05-19T08:30:24.647Z,21.60
2017-05-19T08:32:52.971Z,21.60
2017-05-19T08:35:21.312Z,21.60
2017-05-19T08:37:49.628Z,21.60
2017-05-19T08:40:17.939Z,21.50
2017-05-19T08:42:46.272Z,21.40
2017-05-19T08:45:14.592Z,21.40
2017-05-19T08:47:42.938Z,21.30
2017-05-19T08:50:11.255Z,21.30
2017-05-19T08:52:39.566Z,21.40
2017-05-19T08:55:07.890Z,21.10
2017-05-19T08:57:36.201Z,21.00
2017-05-19T09:00:04.543Z,21.10
2017-05-19T09:02:32.878Z,20.80
2017-05-19T09:05:01.246Z,20.40
2017-05-19T09:07:29.633Z,20.30
2017-05-19T09:09:57.951Z,20.20
2017-05-19T09:12:26.311Z,20.20
2017-05-19T09:14:54.627Z,20.00
2017-05-19T09:17:23.056Z,19.80
2017-05-19T09:19:51.430Z,19.80
2017-05-19T09:22:19.754Z,19.70
2017-05-19T09:24:48.093Z,19.50
2017-05-19T09:29:51.302Z,19.30
2017-05-19T09:32:19.615Z,19.20
2017-05-19T09:34:48.062Z,19.10
2017-05-19T09:37:16.436Z,19.00
2017-05-19T09:39:44.755Z,19.00
2017-05-19T09:42:13.097Z,18.80
2017-05-19T09:44:41.409Z,18.80
2017-05-19T09:47:09.759Z,18.80
2017-05-19T09:49:38.075Z,18.80
2017-05-19T09:52:06.436Z,18.90
2017-05-19T09:54:34.749Z,19.10
2017-05-19T09:57:03.055Z,19.20
2017-05-19T09:59:31.387Z,19.10
2017-05-19T10:01:59.700Z,19.10
2017-05-19T10:04:28.111Z,18.90
2017-05-19T10:06:56.422Z,18.90
2017-05-19T10:09:24.763Z,19.00
2017-05-19T10:11:53.160Z,19.30
2017-05-19T10:14:21.466Z,19.90
2017-05-19T10:16:49.910Z,20.00
2017-05-19T10:19:18.229Z,20.10
2017-05-19T10:21:46.572Z,20.30
2017-05-19T10:24:14.887Z,20.40
2017-05-19T10:26:43.243Z,20.30
2017-05-19T10:29:11.556Z,20.10
2017-05-19T10:31:39.876Z,20.00
2017-05-19T10:34:08.208Z,19.70
2017-05-19T10:36:36.527Z,19.50
2017-05-19T10:39:04.870Z,19.40
2017-05-19T10:41:33.183Z,19.40
2017-05-19T10:44:01.530Z,19.60
2017-05-19T10:46:29.842Z,19.70
2017-05-19T10:48:58.160Z,19.50
2017-05-19T10:51:26.492Z,19.30
2017-05-19T10:53:54.893Z,19.20
2017-05-19T10:56:23.230Z,19.10
2017-05-19T10:58:51.551Z,19.20
2017-05-19T11:01:19.931Z,19.40
2017-05-19T11:03:48.258Z,19.50
2017-05-19T11:06:16.577Z,19.90
2017-05-19T11:08:44.915Z,20.40
2017-05-19T11:11:13.228Z,20.40
2017-05-19T11:13:41.567Z,20.40
2017-05-19T11:16:09.882Z,20.10
2017-05-19T11:18:38.270Z,20.10
2017-05-19T11:21:06.585Z,19.80
2017-05-19T11:23:34.899Z,19.70
2017-05-19T11:26:03.229Z,19.60
2017-05-19T11:28:31.602Z,19.60
2017-05-19T11:30:59.953Z,19.60
2017-05-19T11:33:28.359Z,19.60
2017-05-19T11:35:56.700Z,19.60
2017-05-19T11:38:25.024Z,19.60
2017-05-19T11:40:53.358Z,19.40
2017-05-19T11:43:21.678Z,19.60
2017-05-19T11:45:49.991Z,19.70
2017-05-19T11:48:18.324Z,19.70
2017-05-19T11:50:46.644Z,20.10
2017-05-19T11:53:14.986Z,20.40
2017-05-19T11:55:43.303Z,20.60
2017-05-19T11:58:11.739Z,20.90
2017-05-19T12:00:40.061Z,21.10
2017-05-19T12:03:08.400Z,21.30
2017-05-19T12:05:36.731Z,21.70
2017-05-19T12:08:05.044Z,21.70
2017-05-19T12:10:33.386Z,21.70
2017-05-19T12:13:01.722Z,21.80
2017-05-19T12:15:30.076Z,21.90
2017-05-19T12:17:58.485Z,21.60
2017-05-19T12:20:26.799Z,21.50
2017-05-19T12:22:55.134Z,21.40
2017-05-19T12:25:23.450Z,21.20
2017-05-19T12:27:51.801Z,21.20
2017-05-19T12:30:20.107Z,21.20
2017-05-19T12:32:48.460Z,21.00
2017-05-19T12:35:16.832Z,21.00
2017-05-19T12:37:45.217Z,20.90
2017-05-19T12:40:13.559Z,20.80
2017-05-19T12:42:41.859Z,20.70
2017-05-19T12:45:10.203Z,20.90
2017-05-19T12:47:38.639Z,21.00
2017-05-19T12:50:06.977Z,20.90
2017-05-19T12:52:35.284Z,20.80
2017-05-19T12:55:03.592Z,20.60
2017-05-19T12:57:31.955Z,20.80
2017-05-19T13:00:00.274Z,20.90
2017-05-19T13:02:28.611Z,21.10
2017-05-19T13:04:56.979Z,21.00
2017-05-19T13:07:25.364Z,21.10
2017-05-19T13:09:53.743Z,21.10
2017-05-19T13:12:22.062Z,21.30
2017-05-19T13:14:50.406Z,21.30
2017-05-19T13:17:18.727Z,21.20
2017-05-19T13:19:57.371Z,21.20
2017-05-19T13:22:25.680Z,21.00
2017-05-19T13:24:54.021Z,21.00
2017-05-19T13:27:22.334Z,21.00
2017-05-19T13:29:50.639Z,20.90
2017-05-19T13:32:18.986Z,20.50
2017-05-19T13:34:47.307Z,20.00
2017-05-19T13:37:15.755Z,19.80
2017-05-19T13:39:44.089Z,19.60
2017-05-19T13:42:12.520Z,19.60
2017-05-19T13:44:40.894Z,19.30
2017-05-19T13:47:09.224Z,19.60
2017-05-19T13:49:37.562Z,19.80
2017-05-19T13:52:05.886Z,20.00
2017-05-19T13:54:34.233Z,20.10
2017-05-19T13:57:02.559Z,20.00
2017-05-19T13:59:30.880Z,20.20
2017-05-19T14:01:59.221Z,20.00
2017-05-19T14:04:27.551Z,20.10
2017-05-19T14:06:55.900Z,20.30
2017-05-19T14:09:24.286Z,20.60
2017-05-19T14:11:52.622Z,20.40
2017-05-19T14:14:21.045Z,20.80
2017-05-19T14:16:49.367Z,20.50
2017-05-19T14:19:17.684Z,20.10
2017-05-19T14:21:46.011Z,19.60
2017-05-19T14:24:14.323Z,19.30
2017-05-19T14:26:42.639Z,19.10
2017-05-19T14:29:10.997Z,18.90
2017-05-19T14:31:39.390Z,18.70
2017-05-19T14:34:07.785Z,18.90
2017-05-19T14:36:36.162Z,18.90
2017-05-19T14:39:04.480Z,18.90
2017-05-19T14:41:32.817Z,18.90
2017-05-19T14:44:01.130Z,18.70
2017-05-19T14:46:28.758Z,18.70
2017-05-19T14:48:57.133Z,18.50
2017-05-19T14:51:25.487Z,18.40
2017-05-19T14:53:53.894Z,18.10
2017-05-19T14:56:22.219Z,18.10
2017-05-19T14:58:50.553Z,17.90
2017-05-19T15:01:18.945Z,18.00
2017-05-19T15:03:47.324Z,17.70
2017-05-19T15:06:15.878Z,17.70
2017-05-19T15:08:44.363Z,17.60
2017-05-19T15:11:12.726Z,17.50
2017-05-19T15:13:41.207Z,17.30
2017-05-19T15:16:09.551Z,17.30
2017-05-19T15:18:37.897Z,17.20
2017-05-19T15:21:06.215Z,17.30
2017-05-19T15:23:34.570Z,17.30
2017-05-19T15:26:02.888Z,17.20
2017-05-19T15:28:31.208Z,17.00
2017-05-19T15:30:59.600Z,16.90
2017-05-19T15:33:27.986Z,17.00
2017-05-19T15:35:56.337Z,16.80
2017-05-19T15:38:24.663Z,16.60
2017-05-19T15:40:53.012Z,16.40
2017-05-19T15:43:21.333Z,16.50
2017-05-19T15:45:49.648Z,16.20
2017-05-19T15:48:18.002Z,16.10
2017-05-19T15:50:46.322Z,16.00
2017-05-19T15:53:14.675Z,16.00
2017-05-19T15:55:43.008Z,15.80
2017-05-19T15:58:11.371Z,15.90
2017-05-19T16:00:39.690Z,15.90
2017-05-19T16:03:08.026Z,15.90
2017-05-19T16:05:36.342Z,15.90
2017-05-19T16:08:12.260Z,16.00
2017-05-19T16:10:40.578Z,15.90
2017-05-19T16:13:08.930Z,15.90
2017-05-19T16:15:37.314Z,15.80
2017-05-19T16:18:05.717Z,15.80
2017-05-19T16:20:34.071Z,15.80
2017-05-19T16:23:02.452Z,15.70
2017-05-19T16:25:30.899Z,15.40
2017-05-19T16:27:59.234Z,15.60
2017-05-19T16:30:27.570Z,15.40
2017-05-19T16:32:55.912Z,15.30
2017-05-19T16:35:24.335Z,15.20
2017-05-19T16:37:54.983Z,15.00
2017-05-19T16:40:23.319Z,15.00
2017-05-19T16:42:51.640Z,14.90
2017-05-19T16:45:19.964Z,15.00
2017-05-19T16:47:48.273Z,15.00
2017-05-19T16:50:16.590Z,14.90
2017-05-19T16:52:44.914Z,15.00
2017-05-19T16:55:13.326Z,14.90
2017-05-19T16:57:41.655Z,14.90
2017-05-19T17:00:09.983Z,14.90
2017-05-19T17:02:38.358Z,14.90
2017-05-19T17:05:06.679Z,14.90
2017-05-19T17:07:34.999Z,14.80
2017-05-19T17:10:03.395Z,14.70
2017-05-19T17:12:31.775Z,14.70
2017-05-19T17:15:00.096Z,14.60
2017-05-19T17:17:28.415Z,14.80
2017-05-19T17:19:56.751Z,14.60
2017-05-19T17:22:25.071Z,14.60
2017-05-19T17:24:53.393Z,14.50
2017-05-19T17:27:21.705Z,14.50
2017-05-19T17:29:50.048Z,14.40
2017-05-19T17:32:18.366Z,14.40
2017-05-19T17:34:46.679Z,14.30
2017-05-19T17:37:15.062Z,14.20
2017-05-19T17:39:43.396Z,14.30
2017-05-19T17:42:11.820Z,14.20
2017-05-19T17:44:40.139Z,14.10
2017-05-19T17:47:08.599Z,14.10
2017-05-19T17:49:36.919Z,14.00
2017-05-19T17:52:05.247Z,14.10
2017-05-19T17:54:33.566Z,14.00
2017-05-19T17:57:02.213Z,13.80
2017-05-19T17:59:30.527Z,13.80
2017-05-19T18:01:58.839Z,13.90
2017-05-19T18:04:27.200Z,13.80
2017-05-19T18:06:55.622Z,13.80
2017-05-19T18:09:24.002Z,13.80
2017-05-19T18:11:52.326Z,13.80
2017-05-19T18:14:20.653Z,13.80
2017-05-19T18:16:48.976Z,13.80
2017-05-19T18:19:17.332Z,13.70
2017-05-19T18:21:45.703Z,13.80
2017-05-19T18:24:14.015Z,13.60
2017-05-19T18:26:42.463Z,13.60
2017-05-19T18:29:10.847Z,13.60
2017-05-19T18:31:39.244Z,13.50
2017-05-19T18:34:07.570Z,13.50
2017-05-19T18:36:35.988Z,13.60
2017-05-19T18:39:04.336Z,13.50
2017-05-19T18:41:32.743Z,13.50
2017-05-19T18:44:01.099Z,13.30
2017-05-19T18:46:29.507Z,13.40
2017-05-19T18:48:57.819Z,13.50
2017-05-19T18:51:26.138Z,13.50
2017-05-19T18:53:54.459Z,13.50
2017-05-19T18:56:22.794Z,13.50
2017-05-19T18:58:51.111Z,13.40
2017-05-19T19:01:19.505Z,13.40
2017-05-19T19:03:47.831Z,13.30
2017-05-19T19:06:16.157Z,13.30
2017-05-19T19:08:44.476Z,13.30
2017-05-19T19:11:12.786Z,13.20
2017-05-19T19:13:41.170Z,13.10
2017-05-19T19:16:09.487Z,13.00
2017-05-19T19:18:37.857Z,13.00
2017-05-19T19:21:06.192Z,13.00
2017-05-19T19:23:34.670Z,13.10
2017-05-19T19:26:03.014Z,13.00
2017-05-19T19:28:31.331Z,13.00
2017-05-19T19:30:59.721Z,12.90
2017-05-19T19:33:29.915Z,12.90
2017-05-19T19:35:58.322Z,13.10
2017-05-19T19:38:26.725Z,13.00
2017-05-19T19:40:55.057Z,13.00
2017-05-19T19:43:23.464Z,13.00
2017-05-19T19:45:51.819Z,13.00
2017-05-19T19:48:20.148Z,13.00
2017-05-19T19:50:48.463Z,13.00
2017-05-19T19:53:16.789Z,13.10
2017-05-19T19:55:45.162Z,13.00
2017-05-19T19:58:13.494Z,13.10
2017-05-19T20:00:41.832Z,12.90
2017-05-19T20:03:10.188Z,13.00
2017-05-19T20:05:38.502Z,12.90
2017-05-19T20:08:06.842Z,12.90
2017-05-19T20:10:35.150Z,13.00
2017-05-19T20:13:03.519Z,12.90
2017-05-19T20:15:31.894Z,12.80
2017-05-19T20:18:00.278Z,12.70
2017-05-19T20:20:28.596Z,12.70
2017-05-19T20:22:56.913Z,12.80
2017-05-19T20:25:25.231Z,12.70
2017-05-19T20:27:53.587Z,12.80
2017-05-19T20:30:21.972Z,12.90
2017-05-19T20:32:50.296Z,12.80
2017-05-19T20:35:18.639Z,12.90
2017-05-19T20:37:47.010Z,12.90
2017-05-19T20:40:15.396Z,12.80
2017-05-19T20:42:43.722Z,12.90
2017-05-19T20:45:12.046Z,12.80
2017-05-19T20:47:40.364Z,12.80
2017-05-19T20:50:08.788Z,12.80
2017-05-19T20:52:37.147Z,12.70
2017-05-19T20:55:05.481Z,12.80
2017-05-19T20:57:33.850Z,12.80
2017-05-19T21:00:02.227Z,12.80
2017-05-19T21:02:30.578Z,12.80
2017-05-19T21:04:58.898Z,12.60
2017-05-19T21:07:27.222Z,12.60
2017-05-19T21:09:55.542Z,12.60
2017-05-19T21:12:23.858Z,12.50
2017-05-19T21:14:52.202Z,12.40
2017-05-19T21:17:20.531Z,12.50
2017-05-19T21:19:48.885Z,12.40
2017-05-19T21:22:17.218Z,12.50
2017-05-19T21:24:45.546Z,12.50
2017-05-19T21:27:13.875Z,12.50
2017-05-19T21:29:42.197Z,12.30
2017-05-19T21:32:10.559Z,12.30
2017-05-19T21:34:38.879Z,12.30
2017-05-19T21:37:07.214Z,12.20
2017-05-19T21:39:35.534Z,12.30
2017-05-19T21:42:03.979Z,12.20
2017-05-19T21:44:32.347Z,12.10
2017-05-19T21:47:00.671Z,12.20
2017-05-19T21:49:28.985Z,12.20
2017-05-19T21:51:57.321Z,12.20
2017-05-19T21:54:25.643Z,12.20
2017-05-19T21:56:53.966Z,12.20
2017-05-19T21:59:22.327Z,12.20
2017-05-19T22:01:50.646Z,12.30
2017-05-19T22:04:18.999Z,12.30
2017-05-19T22:06:47.325Z,12.20
2017-05-19T22:09:15.670Z,12.00
2017-05-19T22:11:44.017Z,12.10
2017-05-19T22:14:12.394Z,12.00
2017-05-19T22:16:40.767Z,12.10
2017-05-19T22:19:09.091Z,12.00
2017-05-19T22:21:37.419Z,12.00
2017-05-19T22:24:05.735Z,12.00
2017-05-19T22:26:34.066Z,12.00
2017-05-19T22:29:02.384Z,12.00
2017-05-19T22:31:30.751Z,11.90
2017-05-19T22:33:59.126Z,12.00
2017-05-19T22:36:27.470Z,12.00
2017-05-19T22:38:55.799Z,11.90
2017-05-19T22:41:24.160Z,11.80
2017-05-19T22:43:52.484Z,11.70
2017-05-19T22:46:20.814Z,11.80
2017-05-19T22:48:49.235Z,11.70
2017-05-19T22:51:17.551Z,11.70
2017-05-19T22:53:45.870Z,11.80
2017-05-19T22:56:14.186Z,11.80
2017-05-19T22:58:42.616Z,11.80
2017-05-19T23:01:10.924Z,11.80
2017-05-19T23:03:39.295Z,11.70
2017-05-19T23:06:07.611Z,11.70
2017-05-19T23:08:35.955Z,11.80
2017-05-19T23:11:04.315Z,11.70
2017-05-19T23:13:32.647Z,11.80
2017-05-19T23:16:01.071Z,11.80
2017-05-19T23:18:29.458Z,11.80
2017-05-19T23:20:57.778Z,11.70
2017-05-19T23:23:26.093Z,11.70
2017-05-19T23:25:54.491Z,11.70
2017-05-19T23:28:22.855Z,11.70
2017-05-19T23:30:51.253Z,11.60
2017-05-19T23:33:19.574Z,11.70
2017-05-19T23:35:48.015Z,11.70
2017-05-19T23:38:16.347Z,11.60
2017-05-19T23:40:44.674Z,11.60
2017-05-19T23:43:13.050Z,11.70
2017-05-19T23:45:41.367Z,11.70
2017-05-19T23:48:09.710Z,11.60
2017-05-19T23:50:38.095Z,11.60
2017-05-19T23:53:06.415Z,11.60
2017-05-19T23:55:34.765Z,11.70
2017-05-19T23:58:03.108Z,11.60
